Airfield :
LOGIN :

Register | Disclaimer

   EN    FR    IT 

 










Legend :    VFR   Marginal VFR   IFR   Intensive IFR   Very Intensive IFR
Visi :
Ceiling :
>= 8 km
>= 3000ft
5 to 8 km
1000 to 3000 ft
1500m to 5 km
500 to 1000 ft
800 to 1500m
200 to 500 ft
< 800m
< 200 ft
Symbols :   Thunderstorms  Fog  Heavy snow  Heavy precipitations  Wind > 20 kt
SIGMETs :     Misc.  Thunderstorms  Icing  Turbulence  Mountain Waves  Volcanic Ashes






- Airport Elevation : 26 ft
- IATA code : GLA


EGPF - Glasgow

CURRENT METAR :
  • 070950Z AUTO 23014KT 9999 FEW040/// //////TCU 12/09 Q1007

EXPIRED METARs :
  • 070920Z AUTO 23009KT 9999 //////TCU 11/09 Q1007
  • 070850Z AUTO 23011KT 9999 //////TCU 10/08 Q1007
  • 070820Z AUTO 22013KT 9999 -RA BKN047/// //////CB 09/08 Q1007
  • 070750Z AUTO 21011KT 9999 -RA FEW031/// SCT046/// //////CB 09/07 Q1006 RERA
  • 070720Z AUTO 27013G25KT 9999 -RA FEW018/// SCT024/// BKN037/// //////CB 10/07 Q1007
  • 070650Z AUTO 23013KT 9999 -RA //////CB 11/09 Q1006

TAF AMD TAF EGPF
Valid from the 07 at 07:00 until the 08 at 06:00 UTC


070729Z 0707/0806 25009KT 9999 SCT025
TEMPO 0707/0720 26015G25KT 5000 SHRA
PROB30
TEMPO 0707/0718 3000 +SHRA
ATIS : +44 141 887 7449



MET'MAP, your aeronautical weather chart ! - Copyright ORBIFLY December 2007 - Disclaimer

ORBIFLY MET'MAP TEAM :

Programming & Development : Alexandra Zaïnal
Original concept : Baudouin d'Aumeries
Technical & hardware support : Manuel Goepfert
Assistance : Marc-Olivier Méhu




SOURCES & CREDITS :

   NOAA